sensor_id;sensor_type;location;lat;lon;timestamp;P1;durP1;ratioP1;P2;durP2;ratioP2
3712;SDS011;1872;51.406;6.856;2023-04-26T00:02:08;5.03;;;3.63;;
3712;SDS011;1872;51.406;6.856;2023-04-26T00:04:35;4.30;;;3.73;;
3712;SDS011;1872;51.406;6.856;2023-04-26T00:07:01;5.10;;;3.30;;
3712;SDS011;1872;51.406;6.856;2023-04-26T00:09:27;4.53;;;3.70;;
3712;SDS011;1872;51.406;6.856;2023-04-26T00:11:53;7.33;;;3.80;;
3712;SDS011;1872;51.406;6.856;2023-04-26T00:14:18;11.67;;;5.30;;
3712;SDS011;1872;51.406;6.856;2023-04-26T00:16:44;5.20;;;4.03;;
3712;SDS011;1872;51.406;6.856;2023-04-26T00:19:10;7.00;;;3.70;;
3712;SDS011;1872;51.406;6.856;2023-04-26T00:21:36;6.93;;;4.07;;
3712;SDS011;1872;51.406;6.856;2023-04-26T00:24:02;8.37;;;3.67;;
3712;SDS011;1872;51.406;6.856;2023-04-26T00:26:29;3.87;;;3.53;;
3712;SDS011;1872;51.406;6.856;2023-04-26T00:28:56;5.17;;;3.60;;
3712;SDS011;1872;51.406;6.856;2023-04-26T00:31:21;3.93;;;3.57;;
3712;SDS011;1872;51.406;6.856;2023-04-26T00:33:47;8.50;;;4.70;;
3712;SDS011;1872;51.406;6.856;2023-04-26T00:36:13;6.50;;;4.20;;
3712;SDS011;1872;51.406;6.856;2023-04-26T00:38:41;4.40;;;4.00;;
3712;SDS011;1872;51.406;6.856;2023-04-26T00:41:06;6.40;;;4.23;;
3712;SDS011;1872;51.406;6.856;2023-04-26T00:43:32;5.23;;;4.20;;
3712;SDS011;1872;51.406;6.856;2023-04-26T00:45:57;8.40;;;5.10;;
3712;SDS011;1872;51.406;6.856;2023-04-26T00:48:23;7.23;;;4.30;;
3712;SDS011;1872;51.406;6.856;2023-04-26T00:50:49;7.63;;;5.17;;
3712;SDS011;1872;51.406;6.856;2023-04-26T00:53:15;5.77;;;4.33;;
3712;SDS011;1872;51.406;6.856;2023-04-26T00:55:41;7.80;;;4.23;;
3712;SDS011;1872;51.406;6.856;2023-04-26T00:58:08;9.00;;;4.20;;
3712;SDS011;1872;51.406;6.856;2023-04-26T01:00:34;7.30;;;4.17;;
3712;SDS011;1872;51.406;6.856;2023-04-26T01:03:00;8.43;;;4.33;;
3712;SDS011;1872;51.406;6.856;2023-04-26T01:05:26;6.37;;;4.73;;
3712;SDS011;1872;51.406;6.856;2023-04-26T01:07:51;5.33;;;4.73;;
3712;SDS011;1872;51.406;6.856;2023-04-26T01:10:17;5.20;;;4.13;;
3712;SDS011;1872;51.406;6.856;2023-04-26T01:12:43;7.70;;;4.43;;
3712;SDS011;1872;51.406;6.856;2023-04-26T01:15:10;9.97;;;5.13;;
3712;SDS011;1872;51.406;6.856;2023-04-26T01:17:36;7.77;;;5.00;;
3712;SDS011;1872;51.406;6.856;2023-04-26T01:20:02;10.43;;;5.57;;
3712;SDS011;1872;51.406;6.856;2023-04-26T01:22:31;8.97;;;5.40;;
3712;SDS011;1872;51.406;6.856;2023-04-26T01:24:57;8.23;;;5.50;;
3712;SDS011;1872;51.406;6.856;2023-04-26T01:27:25;8.93;;;5.63;;
3712;SDS011;1872;51.406;6.856;2023-04-26T01:29:51;10.20;;;5.10;;
3712;SDS011;1872;51.406;6.856;2023-04-26T01:32:16;7.10;;;5.47;;
3712;SDS011;1872;51.406;6.856;2023-04-26T01:34:42;8.83;;;5.97;;
3712;SDS011;1872;51.406;6.856;2023-04-26T01:37:08;6.60;;;4.57;;
3712;SDS011;1872;51.406;6.856;2023-04-26T01:39:34;10.47;;;5.87;;
3712;SDS011;1872;51.406;6.856;2023-04-26T01:42:00;8.70;;;5.80;;
3712;SDS011;1872;51.406;6.856;2023-04-26T01:44:26;7.83;;;4.90;;
3712;SDS011;1872;51.406;6.856;2023-04-26T01:47:00;8.50;;;5.30;;
3712;SDS011;1872;51.406;6.856;2023-04-26T01:49:33;8.30;;;5.43;;
3712;SDS011;1872;51.406;6.856;2023-04-26T01:52:06;12.13;;;6.13;;
3712;SDS011;1872;51.406;6.856;2023-04-26T01:54:34;8.80;;;6.47;;
3712;SDS011;1872;51.406;6.856;2023-04-26T01:57:00;8.07;;;5.60;;
3712;SDS011;1872;51.406;6.856;2023-04-26T01:59:26;7.33;;;5.40;;
3712;SDS011;1872;51.406;6.856;2023-04-26T02:01:52;8.00;;;5.60;;
3712;SDS011;1872;51.406;6.856;2023-04-26T02:04:18;10.23;;;6.47;;
3712;SDS011;1872;51.406;6.856;2023-04-26T02:06:43;10.87;;;7.40;;
3712;SDS011;1872;51.406;6.856;2023-04-26T02:09:09;8.83;;;6.03;;
3712;SDS011;1872;51.406;6.856;2023-04-26T02:11:35;9.43;;;6.17;;
3712;SDS011;1872;51.406;6.856;2023-04-26T02:14:01;8.30;;;5.23;;
3712;SDS011;1872;51.406;6.856;2023-04-26T02:16:26;10.50;;;6.80;;
3712;SDS011;1872;51.406;6.856;2023-04-26T02:18:52;11.40;;;5.67;;
3712;SDS011;1872;51.406;6.856;2023-04-26T02:21:18;8.87;;;5.57;;
3712;SDS011;1872;51.406;6.856;2023-04-26T02:23:45;7.87;;;5.37;;
3712;SDS011;1872;51.406;6.856;2023-04-26T02:26:11;10.83;;;6.50;;
3712;SDS011;1872;51.406;6.856;2023-04-26T02:28:37;9.10;;;5.63;;
3712;SDS011;1872;51.406;6.856;2023-04-26T02:31:02;11.67;;;6.53;;
3712;SDS011;1872;51.406;6.856;2023-04-26T02:33:28;10.73;;;6.00;;
3712;SDS011;1872;51.406;6.856;2023-04-26T02:35:54;9.03;;;5.90;;
3712;SDS011;1872;51.406;6.856;2023-04-26T02:38:19;9.40;;;5.63;;
3712;SDS011;1872;51.406;6.856;2023-04-26T02:40:46;8.73;;;5.23;;
3712;SDS011;1872;51.406;6.856;2023-04-26T02:43:11;8.17;;;5.93;;
3712;SDS011;1872;51.406;6.856;2023-04-26T02:45:40;6.77;;;5.10;;
3712;SDS011;1872;51.406;6.856;2023-04-26T02:48:07;9.30;;;6.00;;
3712;SDS011;1872;51.406;6.856;2023-04-26T02:50:32;9.07;;;5.90;;
3712;SDS011;1872;51.406;6.856;2023-04-26T02:52:58;10.80;;;6.30;;
3712;SDS011;1872;51.406;6.856;2023-04-26T02:55:23;9.00;;;5.80;;
3712;SDS011;1872;51.406;6.856;2023-04-26T02:57:50;5.83;;;4.83;;
3712;SDS011;1872;51.406;6.856;2023-04-26T03:00:16;9.60;;;5.77;;
3712;SDS011;1872;51.406;6.856;2023-04-26T03:02:42;7.47;;;6.00;;
3712;SDS011;1872;51.406;6.856;2023-04-26T03:05:07;7.80;;;6.40;;
3712;SDS011;1872;51.406;6.856;2023-04-26T03:07:34;8.30;;;6.60;;
3712;SDS011;1872;51.406;6.856;2023-04-26T03:10:00;9.97;;;5.90;;
3712;SDS011;1872;51.406;6.856;2023-04-26T03:12:26;9.50;;;6.13;;
3712;SDS011;1872;51.406;6.856;2023-04-26T03:14:51;9.43;;;7.03;;
3712;SDS011;1872;51.406;6.856;2023-04-26T03:17:17;10.27;;;6.00;;
3712;SDS011;1872;51.406;6.856;2023-04-26T03:19:43;8.27;;;5.60;;
3712;SDS011;1872;51.406;6.856;2023-04-26T03:22:08;13.73;;;6.40;;
3712;SDS011;1872;51.406;6.856;2023-04-26T03:24:35;10.23;;;7.17;;
3712;SDS011;1872;51.406;6.856;2023-04-26T03:27:03;10.77;;;6.30;;
3712;SDS011;1872;51.406;6.856;2023-04-26T03:29:29;8.70;;;6.60;;
3712;SDS011;1872;51.406;6.856;2023-04-26T03:31:55;8.27;;;5.53;;
3712;SDS011;1872;51.406;6.856;2023-04-26T03:34:20;8.83;;;5.83;;
3712;SDS011;1872;51.406;6.856;2023-04-26T03:36:46;9.83;;;6.70;;
3712;SDS011;1872;51.406;6.856;2023-04-26T03:39:12;7.37;;;5.97;;
3712;SDS011;1872;51.406;6.856;2023-04-26T03:41:37;8.27;;;6.00;;
3712;SDS011;1872;51.406;6.856;2023-04-26T03:44:04;7.33;;;5.17;;
3712;SDS011;1872;51.406;6.856;2023-04-26T03:46:30;9.60;;;6.10;;
3712;SDS011;1872;51.406;6.856;2023-04-26T03:48:55;8.10;;;5.57;;
3712;SDS011;1872;51.406;6.856;2023-04-26T03:51:21;8.90;;;5.87;;
3712;SDS011;1872;51.406;6.856;2023-04-26T03:53:47;11.63;;;6.50;;
3712;SDS011;1872;51.406;6.856;2023-04-26T03:56:12;9.97;;;6.60;;
3712;SDS011;1872;51.406;6.856;2023-04-26T03:58:38;9.63;;;5.47;;
3712;SDS011;1872;51.406;6.856;2023-04-26T04:01:04;8.70;;;5.80;;
3712;SDS011;1872;51.406;6.856;2023-04-26T04:03:29;9.93;;;5.87;;
3712;SDS011;1872;51.406;6.856;2023-04-26T04:05:55;8.90;;;5.97;;
3712;SDS011;1872;51.406;6.856;2023-04-26T04:08:21;10.67;;;6.10;;
3712;SDS011;1872;51.406;6.856;2023-04-26T04:10:50;8.57;;;6.17;;
3712;SDS011;1872;51.406;6.856;2023-04-26T04:13:18;11.30;;;6.30;;
3712;SDS011;1872;51.406;6.856;2023-04-26T04:15:50;9.03;;;5.87;;
3712;SDS011;1872;51.406;6.856;2023-04-26T04:18:15;9.87;;;6.10;;
3712;SDS011;1872;51.406;6.856;2023-04-26T04:20:41;11.87;;;6.70;;
3712;SDS011;1872;51.406;6.856;2023-04-26T04:23:06;10.90;;;6.40;;
3712;SDS011;1872;51.406;6.856;2023-04-26T04:25:33;9.13;;;6.03;;
3712;SDS011;1872;51.406;6.856;2023-04-26T04:27:59;10.70;;;6.30;;
3712;SDS011;1872;51.406;6.856;2023-04-26T04:30:26;9.73;;;5.90;;
3712;SDS011;1872;51.406;6.856;2023-04-26T04:32:53;8.80;;;6.40;;
3712;SDS011;1872;51.406;6.856;2023-04-26T04:35:19;12.33;;;6.90;;
3712;SDS011;1872;51.406;6.856;2023-04-26T04:37:46;11.87;;;5.87;;
3712;SDS011;1872;51.406;6.856;2023-04-26T04:40:14;9.20;;;6.63;;
3712;SDS011;1872;51.406;6.856;2023-04-26T04:42:40;9.17;;;6.60;;
3712;SDS011;1872;51.406;6.856;2023-04-26T04:45:08;7.70;;;5.50;;
3712;SDS011;1872;51.406;6.856;2023-04-26T04:47:34;7.97;;;6.40;;
3712;SDS011;1872;51.406;6.856;2023-04-26T04:50:01;7.03;;;5.50;;
3712;SDS011;1872;51.406;6.856;2023-04-26T04:52:29;10.33;;;6.53;;
3712;SDS011;1872;51.406;6.856;2023-04-26T04:54:54;10.93;;;6.17;;
3712;SDS011;1872;51.406;6.856;2023-04-26T04:57:20;8.07;;;6.50;;
3712;SDS011;1872;51.406;6.856;2023-04-26T04:59:46;18.23;;;7.57;;
3712;SDS011;1872;51.406;6.856;2023-04-26T05:02:11;9.00;;;6.77;;
3712;SDS011;1872;51.406;6.856;2023-04-26T05:04:37;9.00;;;7.43;;
3712;SDS011;1872;51.406;6.856;2023-04-26T05:07:03;7.97;;;6.77;;
3712;SDS011;1872;51.406;6.856;2023-04-26T05:09:29;11.83;;;7.83;;
3712;SDS011;1872;51.406;6.856;2023-04-26T05:11:55;12.90;;;7.13;;
3712;SDS011;1872;51.406;6.856;2023-04-26T05:14:21;12.70;;;7.27;;
3712;SDS011;1872;51.406;6.856;2023-04-26T05:16:46;10.97;;;8.10;;
3712;SDS011;1872;51.406;6.856;2023-04-26T05:19:12;12.40;;;8.37;;
3712;SDS011;1872;51.406;6.856;2023-04-26T05:21:38;10.17;;;7.40;;
3712;SDS011;1872;51.406;6.856;2023-04-26T05:24:04;13.53;;;7.87;;
3712;SDS011;1872;51.406;6.856;2023-04-26T05:26:29;15.53;;;8.90;;
3712;SDS011;1872;51.406;6.856;2023-04-26T05:28:55;14.13;;;8.80;;
3712;SDS011;1872;51.406;6.856;2023-04-26T05:31:21;13.00;;;8.23;;
3712;SDS011;1872;51.406;6.856;2023-04-26T05:33:46;14.77;;;9.83;;
3712;SDS011;1872;51.406;6.856;2023-04-26T05:36:12;16.20;;;11.00;;
3712;SDS011;1872;51.406;6.856;2023-04-26T05:38:38;18.00;;;11.03;;
3712;SDS011;1872;51.406;6.856;2023-04-26T05:41:05;14.23;;;11.20;;
3712;SDS011;1872;51.406;6.856;2023-04-26T05:43:30;15.20;;;11.50;;
3712;SDS011;1872;51.406;6.856;2023-04-26T05:45:56;20.33;;;12.87;;
3712;SDS011;1872;51.406;6.856;2023-04-26T05:48:22;18.70;;;11.90;;
3712;SDS011;1872;51.406;6.856;2023-04-26T05:50:49;23.90;;;14.30;;
3712;SDS011;1872;51.406;6.856;2023-04-26T05:53:15;23.73;;;17.00;;
3712;SDS011;1872;51.406;6.856;2023-04-26T05:55:41;32.00;;;22.50;;
3712;SDS011;1872;51.406;6.856;2023-04-26T05:58:07;31.70;;;20.87;;
3712;SDS011;1872;51.406;6.856;2023-04-26T06:00:33;37.00;;;20.03;;
3712;SDS011;1872;51.406;6.856;2023-04-26T06:02:59;29.03;;;16.83;;
3712;SDS011;1872;51.406;6.856;2023-04-26T06:05:25;25.13;;;14.97;;
3712;SDS011;1872;51.406;6.856;2023-04-26T06:07:51;23.77;;;14.67;;
3712;SDS011;1872;51.406;6.856;2023-04-26T06:10:17;17.00;;;12.67;;
3712;SDS011;1872;51.406;6.856;2023-04-26T06:12:43;19.03;;;12.77;;
3712;SDS011;1872;51.406;6.856;2023-04-26T06:15:09;23.10;;;12.57;;
3712;SDS011;1872;51.406;6.856;2023-04-26T06:17:35;19.50;;;12.67;;
3712;SDS011;1872;51.406;6.856;2023-04-26T06:20:01;21.00;;;11.63;;
3712;SDS011;1872;51.406;6.856;2023-04-26T06:22:28;15.03;;;10.60;;
3712;SDS011;1872;51.406;6.856;2023-04-26T06:24:54;17.50;;;11.73;;
3712;SDS011;1872;51.406;6.856;2023-04-26T06:27:19;16.70;;;12.00;;
3712;SDS011;1872;51.406;6.856;2023-04-26T06:29:45;15.97;;;10.03;;
3712;SDS011;1872;51.406;6.856;2023-04-26T06:32:10;15.67;;;11.03;;
3712;SDS011;1872;51.406;6.856;2023-04-26T06:34:36;15.90;;;10.47;;
3712;SDS011;1872;51.406;6.856;2023-04-26T06:37:03;15.60;;;11.17;;
3712;SDS011;1872;51.406;6.856;2023-04-26T06:39:29;13.37;;;9.87;;
3712;SDS011;1872;51.406;6.856;2023-04-26T06:41:55;15.60;;;9.30;;
3712;SDS011;1872;51.406;6.856;2023-04-26T06:44:20;16.33;;;11.20;;
3712;SDS011;1872;51.406;6.856;2023-04-26T06:46:46;14.33;;;10.20;;
3712;SDS011;1872;51.406;6.856;2023-04-26T06:49:13;14.23;;;10.40;;
3712;SDS011;1872;51.406;6.856;2023-04-26T06:51:39;14.97;;;10.50;;
3712;SDS011;1872;51.406;6.856;2023-04-26T06:54:05;19.60;;;11.97;;
3712;SDS011;1872;51.406;6.856;2023-04-26T06:56:30;16.37;;;10.60;;
3712;SDS011;1872;51.406;6.856;2023-04-26T06:58:57;14.20;;;10.67;;
3712;SDS011;1872;51.406;6.856;2023-04-26T07:01:27;19.83;;;10.67;;
3712;SDS011;1872;51.406;6.856;2023-04-26T07:03:57;13.40;;;11.10;;
3712;SDS011;1872;51.406;6.856;2023-04-26T07:06:34;15.70;;;11.20;;
3712;SDS011;1872;51.406;6.856;2023-04-26T07:09:01;11.60;;;10.20;;
3712;SDS011;1872;51.406;6.856;2023-04-26T07:11:28;14.80;;;9.80;;
3712;SDS011;1872;51.406;6.856;2023-04-26T07:13:53;17.10;;;9.73;;
3712;SDS011;1872;51.406;6.856;2023-04-26T07:16:19;15.80;;;8.77;;
3712;SDS011;1872;51.406;6.856;2023-04-26T07:18:45;13.67;;;9.80;;
3712;SDS011;1872;51.406;6.856;2023-04-26T07:21:15;12.53;;;9.40;;
3712;SDS011;1872;51.406;6.856;2023-04-26T07:23:40;16.47;;;9.23;;
3712;SDS011;1872;51.406;6.856;2023-04-26T07:26:06;18.23;;;8.93;;
3712;SDS011;1872;51.406;6.856;2023-04-26T07:28:35;11.80;;;8.73;;
3712;SDS011;1872;51.406;6.856;2023-04-26T07:31:00;13.57;;;7.67;;
3712;SDS011;1872;51.406;6.856;2023-04-26T07:33:26;12.90;;;9.23;;
3712;SDS011;1872;51.406;6.856;2023-04-26T07:35:52;10.60;;;8.60;;
3712;SDS011;1872;51.406;6.856;2023-04-26T07:38:22;11.27;;;6.10;;
3712;SDS011;1872;51.406;6.856;2023-04-26T07:40:48;6.87;;;6.10;;
3712;SDS011;1872;51.406;6.856;2023-04-26T07:43:14;9.90;;;6.03;;
3712;SDS011;1872;51.406;6.856;2023-04-26T07:45:40;6.00;;;5.40;;
3712;SDS011;1872;51.406;6.856;2023-04-26T07:48:06;7.00;;;4.87;;
3712;SDS011;1872;51.406;6.856;2023-04-26T07:50:32;11.47;;;6.30;;
3712;SDS011;1872;51.406;6.856;2023-04-26T07:52:58;8.40;;;6.50;;
3712;SDS011;1872;51.406;6.856;2023-04-26T07:55:24;8.63;;;6.13;;
3712;SDS011;1872;51.406;6.856;2023-04-26T07:57:50;10.50;;;7.20;;
3712;SDS011;1872;51.406;6.856;2023-04-26T08:00:16;13.13;;;9.07;;
3712;SDS011;1872;51.406;6.856;2023-04-26T08:02:43;12.20;;;8.53;;
3712;SDS011;1872;51.406;6.856;2023-04-26T08:05:11;12.53;;;8.43;;
3712;SDS011;1872;51.406;6.856;2023-04-26T08:07:37;9.10;;;7.00;;
3712;SDS011;1872;51.406;6.856;2023-04-26T08:10:03;7.23;;;5.40;;
3712;SDS011;1872;51.406;6.856;2023-04-26T08:12:30;9.77;;;7.13;;
3712;SDS011;1872;51.406;6.856;2023-04-26T08:14:58;7.73;;;6.20;;
3712;SDS011;1872;51.406;6.856;2023-04-26T08:17:25;14.27;;;7.07;;
3712;SDS011;1872;51.406;6.856;2023-04-26T08:19:50;10.17;;;8.07;;
3712;SDS011;1872;51.406;6.856;2023-04-26T08:22:16;7.43;;;6.33;;
3712;SDS011;1872;51.406;6.856;2023-04-26T08:24:46;9.30;;;7.40;;
3712;SDS011;1872;51.406;6.856;2023-04-26T08:27:12;12.70;;;7.60;;
3712;SDS011;1872;51.406;6.856;2023-04-26T08:29:37;4.57;;;4.17;;
3712;SDS011;1872;51.406;6.856;2023-04-26T08:32:03;5.53;;;3.20;;
3712;SDS011;1872;51.406;6.856;2023-04-26T08:34:29;3.90;;;3.10;;
3712;SDS011;1872;51.406;6.856;2023-04-26T08:36:54;4.20;;;3.00;;
3712;SDS011;1872;51.406;6.856;2023-04-26T08:39:20;5.80;;;4.80;;
3712;SDS011;1872;51.406;6.856;2023-04-26T08:41:48;9.03;;;5.00;;
3712;SDS011;1872;51.406;6.856;2023-04-26T08:44:17;10.13;;;4.40;;
3712;SDS011;1872;51.406;6.856;2023-04-26T08:52:07;4.57;;;4.17;;
3712;SDS011;1872;51.406;6.856;2023-04-26T08:54:37;7.50;;;5.13;;
3712;SDS011;1872;51.406;6.856;2023-04-26T08:57:04;9.43;;;6.13;;
3712;SDS011;1872;51.406;6.856;2023-04-26T08:59:36;5.47;;;4.40;;
3712;SDS011;1872;51.406;6.856;2023-04-26T09:02:03;5.13;;;3.37;;
3712;SDS011;1872;51.406;6.856;2023-04-26T09:04:30;3.83;;;3.47;;
3712;SDS011;1872;51.406;6.856;2023-04-26T09:07:01;4.23;;;3.80;;
3712;SDS011;1872;51.406;6.856;2023-04-26T09:09:35;7.97;;;5.20;;
3712;SDS011;1872;51.406;6.856;2023-04-26T09:12:06;7.77;;;5.90;;
3712;SDS011;1872;51.406;6.856;2023-04-26T09:14:32;9.47;;;7.03;;
3712;SDS011;1872;51.406;6.856;2023-04-26T09:16:58;7.40;;;5.33;;
3712;SDS011;1872;51.406;6.856;2023-04-26T09:19:37;5.20;;;3.70;;
3712;SDS011;1872;51.406;6.856;2023-04-26T09:22:06;5.23;;;3.20;;
3712;SDS011;1872;51.406;6.856;2023-04-26T09:24:46;5.17;;;4.60;;
3712;SDS011;1872;51.406;6.856;2023-04-26T09:27:12;10.40;;;5.23;;
3712;SDS011;1872;51.406;6.856;2023-04-26T09:29:38;5.90;;;5.10;;
3712;SDS011;1872;51.406;6.856;2023-04-26T09:32:05;6.67;;;5.17;;
3712;SDS011;1872;51.406;6.856;2023-04-26T09:34:37;6.70;;;4.57;;
3712;SDS011;1872;51.406;6.856;2023-04-26T09:37:10;8.03;;;5.30;;
3712;SDS011;1872;51.406;6.856;2023-04-26T09:39:38;10.43;;;6.20;;
3712;SDS011;1872;51.406;6.856;2023-04-26T09:42:08;6.83;;;5.77;;
3712;SDS011;1872;51.406;6.856;2023-04-26T09:44:35;11.33;;;5.00;;
3712;SDS011;1872;51.406;6.856;2023-04-26T09:49:41;8.43;;;5.00;;
3712;SDS011;1872;51.406;6.856;2023-04-26T09:52:11;5.80;;;3.93;;
3712;SDS011;1872;51.406;6.856;2023-04-26T09:54:40;5.13;;;3.77;;
3712;SDS011;1872;51.406;6.856;2023-04-26T09:57:08;8.03;;;5.50;;
3712;SDS011;1872;51.406;6.856;2023-04-26T09:59:38;4.80;;;4.20;;
3712;SDS011;1872;51.406;6.856;2023-04-26T10:02:06;8.30;;;5.53;;
3712;SDS011;1872;51.406;6.856;2023-04-26T10:04:38;8.17;;;5.43;;
3712;SDS011;1872;51.406;6.856;2023-04-26T10:07:04;4.90;;;3.80;;
3712;SDS011;1872;51.406;6.856;2023-04-26T10:09:30;3.93;;;3.53;;
3712;SDS011;1872;51.406;6.856;2023-04-26T10:11:57;4.33;;;3.23;;
3712;SDS011;1872;51.406;6.856;2023-04-26T10:14:24;5.83;;;3.90;;
3712;SDS011;1872;51.406;6.856;2023-04-26T10:16:50;6.00;;;3.87;;
3712;SDS011;1872;51.406;6.856;2023-04-26T10:19:18;4.97;;;4.33;;
3712;SDS011;1872;51.406;6.856;2023-04-26T10:21:46;8.30;;;4.90;;
3712;SDS011;1872;51.406;6.856;2023-04-26T10:24:15;4.60;;;4.00;;
3712;SDS011;1872;51.406;6.856;2023-04-26T10:26:47;4.43;;;4.00;;
3712;SDS011;1872;51.406;6.856;2023-04-26T10:29:13;6.73;;;5.10;;
3712;SDS011;1872;51.406;6.856;2023-04-26T10:34:28;7.70;;;5.67;;
3712;SDS011;1872;51.406;6.856;2023-04-26T10:37:05;6.43;;;5.43;;
3712;SDS011;1872;51.406;6.856;2023-04-26T10:39:32;7.13;;;5.53;;
3712;SDS011;1872;51.406;6.856;2023-04-26T10:44:50;5.67;;;4.53;;
3712;SDS011;1872;51.406;6.856;2023-04-26T10:47:35;7.37;;;4.90;;
3712;SDS011;1872;51.406;6.856;2023-04-26T10:50:08;9.43;;;5.20;;
3712;SDS011;1872;51.406;6.856;2023-04-26T10:53:03;4.67;;;4.27;;
3712;SDS011;1872;51.406;6.856;2023-04-26T10:55:36;6.60;;;4.90;;
3712;SDS011;1872;51.406;6.856;2023-04-26T10:58:24;5.27;;;3.93;;
3712;SDS011;1872;51.406;6.856;2023-04-26T11:03:29;6.13;;;4.40;;
3712;SDS011;1872;51.406;6.856;2023-04-26T11:05:55;4.40;;;4.00;;
3712;SDS011;1872;51.406;6.856;2023-04-26T11:10:58;7.17;;;4.40;;
3712;SDS011;1872;51.406;6.856;2023-04-26T11:13:37;3.87;;;3.57;;
3712;SDS011;1872;51.406;6.856;2023-04-26T11:16:05;4.37;;;3.80;;
3712;SDS011;1872;51.406;6.856;2023-04-26T11:18:37;4.10;;;3.50;;
3712;SDS011;1872;51.406;6.856;2023-04-26T11:21:04;5.80;;;3.70;;
3712;SDS011;1872;51.406;6.856;2023-04-26T11:23:30;6.93;;;4.10;;
3712;SDS011;1872;51.406;6.856;2023-04-26T11:26:00;4.33;;;3.60;;
3712;SDS011;1872;51.406;6.856;2023-04-26T11:28:27;4.37;;;3.57;;
3712;SDS011;1872;51.406;6.856;2023-04-26T11:30:56;4.30;;;3.90;;
3712;SDS011;1872;51.406;6.856;2023-04-26T11:33:23;6.40;;;4.47;;
3712;SDS011;1872;51.406;6.856;2023-04-26T11:35:49;4.30;;;3.87;;
3712;SDS011;1872;51.406;6.856;2023-04-26T11:38:16;5.90;;;4.00;;
3712;SDS011;1872;51.406;6.856;2023-04-26T11:40:51;4.90;;;3.93;;
3712;SDS011;1872;51.406;6.856;2023-04-26T11:43:19;6.70;;;4.57;;
3712;SDS011;1872;51.406;6.856;2023-04-26T11:45:44;5.67;;;4.77;;
3712;SDS011;1872;51.406;6.856;2023-04-26T11:48:10;7.13;;;4.60;;
3712;SDS011;1872;51.406;6.856;2023-04-26T11:50:38;4.73;;;4.33;;
3712;SDS011;1872;51.406;6.856;2023-04-26T11:53:04;5.10;;;4.27;;
3712;SDS011;1872;51.406;6.856;2023-04-26T11:55:33;6.10;;;4.63;;
3712;SDS011;1872;51.406;6.856;2023-04-26T11:58:00;33.87;;;9.73;;
3712;SDS011;1872;51.406;6.856;2023-04-26T12:00:36;8.67;;;5.20;;
3712;SDS011;1872;51.406;6.856;2023-04-26T12:03:18;5.17;;;4.43;;
3712;SDS011;1872;51.406;6.856;2023-04-26T12:05:52;4.30;;;3.90;;
3712;SDS011;1872;51.406;6.856;2023-04-26T12:08:27;7.40;;;4.40;;
3712;SDS011;1872;51.406;6.856;2023-04-26T12:10:55;5.20;;;4.53;;
3712;SDS011;1872;51.406;6.856;2023-04-26T12:13:29;6.77;;;4.03;;
3712;SDS011;1872;51.406;6.856;2023-04-26T12:51:25;8.40;;;5.10;;
3712;SDS011;1872;51.406;6.856;2023-04-26T12:53:51;5.30;;;4.80;;
3712;SDS011;1872;51.406;6.856;2023-04-26T12:56:17;7.37;;;4.27;;
3712;SDS011;1872;51.406;6.856;2023-04-26T12:58:42;7.00;;;4.43;;
3712;SDS011;1872;51.406;6.856;2023-04-26T13:01:08;6.23;;;4.60;;
3712;SDS011;1872;51.406;6.856;2023-04-26T13:03:35;6.23;;;4.37;;
3712;SDS011;1872;51.406;6.856;2023-04-26T13:06:00;4.13;;;3.83;;
3712;SDS011;1872;51.406;6.856;2023-04-26T13:08:27;6.33;;;5.13;;
3712;SDS011;1872;51.406;6.856;2023-04-26T13:13:28;6.57;;;4.80;;
3712;SDS011;1872;51.406;6.856;2023-04-26T13:15:54;6.43;;;4.63;;
3712;SDS011;1872;51.406;6.856;2023-04-26T13:18:20;5.40;;;3.97;;
3712;SDS011;1872;51.406;6.856;2023-04-26T13:20:45;5.60;;;4.67;;
3712;SDS011;1872;51.406;6.856;2023-04-26T13:23:12;6.60;;;4.50;;
3712;SDS011;1872;51.406;6.856;2023-04-26T13:25:37;6.70;;;4.63;;
3712;SDS011;1872;51.406;6.856;2023-04-26T13:28:03;5.83;;;4.43;;
3712;SDS011;1872;51.406;6.856;2023-04-26T13:30:29;7.10;;;4.67;;
3712;SDS011;1872;51.406;6.856;2023-04-26T13:35:16;6.20;;;5.43;;
3712;SDS011;1872;51.406;6.856;2023-04-26T13:37:41;7.00;;;6.10;;
3712;SDS011;1872;51.406;6.856;2023-04-26T13:40:08;6.53;;;5.23;;
3712;SDS011;1872;51.406;6.856;2023-04-26T13:42:38;6.07;;;5.33;;
3712;SDS011;1872;51.406;6.856;2023-04-26T13:45:04;5.47;;;4.90;;
3712;SDS011;1872;51.406;6.856;2023-04-26T13:47:33;5.13;;;4.70;;
3712;SDS011;1872;51.406;6.856;2023-04-26T13:49:59;5.63;;;5.03;;
3712;SDS011;1872;51.406;6.856;2023-04-26T13:52:25;7.60;;;5.60;;
3712;SDS011;1872;51.406;6.856;2023-04-26T13:54:52;5.27;;;4.87;;
3712;SDS011;1872;51.406;6.856;2023-04-26T13:57:18;6.90;;;5.57;;
3712;SDS011;1872;51.406;6.856;2023-04-26T13:59:44;7.20;;;5.53;;
3712;SDS011;1872;51.406;6.856;2023-04-26T14:02:10;7.47;;;5.80;;
3712;SDS011;1872;51.406;6.856;2023-04-26T14:04:36;7.37;;;5.57;;
3712;SDS011;1872;51.406;6.856;2023-04-26T14:07:03;6.20;;;4.80;;
3712;SDS011;1872;51.406;6.856;2023-04-26T14:09:29;7.03;;;5.77;;
3712;SDS011;1872;51.406;6.856;2023-04-26T14:11:55;5.33;;;4.83;;
3712;SDS011;1872;51.406;6.856;2023-04-26T14:14:22;8.60;;;6.03;;
3712;SDS011;1872;51.406;6.856;2023-04-26T14:16:48;7.30;;;5.50;;
3712;SDS011;1872;51.406;6.856;2023-04-26T14:19:14;8.13;;;5.60;;
3712;SDS011;1872;51.406;6.856;2023-04-26T14:21:40;7.60;;;5.90;;
3712;SDS011;1872;51.406;6.856;2023-04-26T14:24:06;6.40;;;5.80;;
3712;SDS011;1872;51.406;6.856;2023-04-26T14:26:32;10.60;;;6.97;;
3712;SDS011;1872;51.406;6.856;2023-04-26T14:28:58;6.33;;;5.73;;
3712;SDS011;1872;51.406;6.856;2023-04-26T14:31:24;7.83;;;5.43;;
3712;SDS011;1872;51.406;6.856;2023-04-26T14:33:52;6.10;;;5.50;;
3712;SDS011;1872;51.406;6.856;2023-04-26T14:36:18;9.60;;;7.00;;
3712;SDS011;1872;51.406;6.856;2023-04-26T14:38:44;9.00;;;6.00;;
3712;SDS011;1872;51.406;6.856;2023-04-26T14:41:16;5.27;;;4.77;;
3712;SDS011;1872;51.406;6.856;2023-04-26T14:43:43;6.70;;;6.00;;
3712;SDS011;1872;51.406;6.856;2023-04-26T14:46:12;9.27;;;6.10;;
3712;SDS011;1872;51.406;6.856;2023-04-26T14:48:38;8.77;;;6.00;;
3712;SDS011;1872;51.406;6.856;2023-04-26T14:51:04;7.20;;;5.73;;
3712;SDS011;1872;51.406;6.856;2023-04-26T14:56:52;6.40;;;5.77;;
3712;SDS011;1872;51.406;6.856;2023-04-26T14:59:18;7.03;;;6.07;;
3712;SDS011;1872;51.406;6.856;2023-04-26T15:01:44;5.90;;;5.40;;
3712;SDS011;1872;51.406;6.856;2023-04-26T15:04:10;6.30;;;5.80;;
3712;SDS011;1872;51.406;6.856;2023-04-26T15:06:35;7.00;;;5.77;;
3712;SDS011;1872;51.406;6.856;2023-04-26T15:09:01;6.23;;;5.60;;
3712;SDS011;1872;51.406;6.856;2023-04-26T15:11:28;7.37;;;6.60;;
3712;SDS011;1872;51.406;6.856;2023-04-26T15:13:54;7.27;;;5.90;;
3712;SDS011;1872;51.406;6.856;2023-04-26T15:16:19;7.57;;;6.50;;
3712;SDS011;1872;51.406;6.856;2023-04-26T15:18:45;7.83;;;6.80;;
3712;SDS011;1872;51.406;6.856;2023-04-26T15:21:20;7.07;;;6.40;;
3712;SDS011;1872;51.406;6.856;2023-04-26T15:23:46;8.17;;;6.07;;
3712;SDS011;1872;51.406;6.856;2023-04-26T15:26:12;9.80;;;6.40;;
3712;SDS011;1872;51.406;6.856;2023-04-26T15:28:38;7.00;;;6.30;;
3712;SDS011;1872;51.406;6.856;2023-04-26T15:31:03;6.70;;;5.30;;
3712;SDS011;1872;51.406;6.856;2023-04-26T15:33:32;12.90;;;6.60;;
3712;SDS011;1872;51.406;6.856;2023-04-26T15:35:58;8.47;;;6.80;;
3712;SDS011;1872;51.406;6.856;2023-04-26T15:38:23;7.00;;;6.33;;
3712;SDS011;1872;51.406;6.856;2023-04-26T15:40:50;9.63;;;7.10;;
3712;SDS011;1872;51.406;6.856;2023-04-26T15:43:17;12.17;;;6.83;;
3712;SDS011;1872;51.406;6.856;2023-04-26T15:45:43;6.60;;;5.80;;
3712;SDS011;1872;51.406;6.856;2023-04-26T15:48:10;7.67;;;6.57;;
3712;SDS011;1872;51.406;6.856;2023-04-26T15:50:36;7.27;;;6.20;;
3712;SDS011;1872;51.406;6.856;2023-04-26T15:53:02;7.20;;;6.60;;
3712;SDS011;1872;51.406;6.856;2023-04-26T15:55:31;7.90;;;7.10;;
3712;SDS011;1872;51.406;6.856;2023-04-26T16:01:20;7.30;;;5.70;;
3712;SDS011;1872;51.406;6.856;2023-04-26T16:03:46;7.57;;;6.03;;
3712;SDS011;1872;51.406;6.856;2023-04-26T16:06:12;8.87;;;6.03;;
3712;SDS011;1872;51.406;6.856;2023-04-26T16:08:38;8.67;;;6.20;;
3712;SDS011;1872;51.406;6.856;2023-04-26T16:11:03;7.27;;;6.30;;
3712;SDS011;1872;51.406;6.856;2023-04-26T16:13:29;7.23;;;5.60;;
3712;SDS011;1872;51.406;6.856;2023-04-26T16:15:55;6.27;;;5.60;;